sensor_id;sensor_type;location;lat;lon;timestamp;temperature;humidity
10314;DHT22;5202;49.138;10.090;2022-11-15T00:02:36;8.00;99.90
10314;DHT22;5202;49.138;10.090;2022-11-15T00:05:23;7.90;99.90
10314;DHT22;5202;49.138;10.090;2022-11-15T00:08:10;7.70;99.90
10314;DHT22;5202;49.138;10.090;2022-11-15T00:10:59;7.70;99.90
10314;DHT22;5202;49.138;10.090;2022-11-15T00:13:47;7.60;99.90
10314;DHT22;5202;49.138;10.090;2022-11-15T00:16:33;7.60;99.90
10314;DHT22;5202;49.138;10.090;2022-11-15T00:19:21;7.60;99.90
10314;DHT22;5202;49.138;10.090;2022-11-15T00:22:09;7.50;99.90
10314;DHT22;5202;49.138;10.090;2022-11-15T00:24:55;7.50;99.90
10314;DHT22;5202;49.138;10.090;2022-11-15T00:27:42;7.40;99.90
10314;DHT22;5202;49.138;10.090;2022-11-15T00:30:30;7.40;99.90
10314;DHT22;5202;49.138;10.090;2022-11-15T00:33:17;7.40;99.90
10314;DHT22;5202;49.138;10.090;2022-11-15T00:36:08;7.40;99.90
10314;DHT22;5202;49.138;10.090;2022-11-15T00:38:55;7.40;99.90
10314;DHT22;5202;49.138;10.090;2022-11-15T00:41:42;7.40;99.90
10314;DHT22;5202;49.138;10.090;2022-11-15T00:44:29;7.50;99.90
10314;DHT22;5202;49.138;10.090;2022-11-15T00:47:15;7.50;99.90
10314;DHT22;5202;49.138;10.090;2022-11-15T00:50:02;7.50;99.90
10314;DHT22;5202;49.138;10.090;2022-11-15T00:52:52;7.50;99.90
10314;DHT22;5202;49.138;10.090;2022-11-15T00:55:39;7.50;99.90
10314;DHT22;5202;49.138;10.090;2022-11-15T00:58:25;7.60;99.90
10314;DHT22;5202;49.138;10.090;2022-11-15T01:01:14;7.60;99.90
10314;DHT22;5202;49.138;10.090;2022-11-15T01:04:29;7.60;99.90
10314;DHT22;5202;49.138;10.090;2022-11-15T01:07:18;7.70;99.90
10314;DHT22;5202;49.138;10.090;2022-11-15T01:10:07;7.70;99.90
10314;DHT22;5202;49.138;10.090;2022-11-15T01:12:55;7.80;99.90
10314;DHT22;5202;49.138;10.090;2022-11-15T01:15:42;7.80;99.90
10314;DHT22;5202;49.138;10.090;2022-11-15T01:18:28;7.90;99.90
10314;DHT22;5202;49.138;10.090;2022-11-15T01:21:17;8.00;99.90
10314;DHT22;5202;49.138;10.090;2022-11-15T01:24:05;8.10;99.90
10314;DHT22;5202;49.138;10.090;2022-11-15T01:26:54;8.10;99.90
10314;DHT22;5202;49.138;10.090;2022-11-15T01:29:40;8.10;99.90
10314;DHT22;5202;49.138;10.090;2022-11-15T01:32:27;8.10;99.90
10314;DHT22;5202;49.138;10.090;2022-11-15T01:35:14;8.10;99.90
10314;DHT22;5202;49.138;10.090;2022-11-15T01:38:01;8.10;99.90
10314;DHT22;5202;49.138;10.090;2022-11-15T01:40:48;8.10;99.90
10314;DHT22;5202;49.138;10.090;2022-11-15T01:43:37;8.10;99.90
10314;DHT22;5202;49.138;10.090;2022-11-15T01:46:29;8.20;99.90
10314;DHT22;5202;49.138;10.090;2022-11-15T01:49:19;8.20;99.90
10314;DHT22;5202;49.138;10.090;2022-11-15T01:52:09;8.20;99.90
10314;DHT22;5202;49.138;10.090;2022-11-15T01:55:03;8.20;99.90
10314;DHT22;5202;49.138;10.090;2022-11-15T01:57:54;8.20;99.90
10314;DHT22;5202;49.138;10.090;2022-11-15T02:00:44;8.20;99.90
10314;DHT22;5202;49.138;10.090;2022-11-15T02:03:38;8.20;99.90
10314;DHT22;5202;49.138;10.090;2022-11-15T02:06:27;8.20;99.90
10314;DHT22;5202;49.138;10.090;2022-11-15T02:09:14;8.20;99.90
10314;DHT22;5202;49.138;10.090;2022-11-15T02:12:01;8.20;99.90
10314;DHT22;5202;49.138;10.090;2022-11-15T02:14:51;8.10;99.90
10314;DHT22;5202;49.138;10.090;2022-11-15T02:17:54;8.10;99.90
10314;DHT22;5202;49.138;10.090;2022-11-15T02:21:11;8.00;99.90
10314;DHT22;5202;49.138;10.090;2022-11-15T02:28:04;8.10;99.90
10314;DHT22;5202;49.138;10.090;2022-11-15T02:31:13;8.10;99.90
10314;DHT22;5202;49.138;10.090;2022-11-15T02:34:09;8.20;99.90
10314;DHT22;5202;49.138;10.090;2022-11-15T02:37:02;8.20;99.90
10314;DHT22;5202;49.138;10.090;2022-11-15T02:39:58;8.20;99.90
10314;DHT22;5202;49.138;10.090;2022-11-15T02:42:54;8.20;99.90
10314;DHT22;5202;49.138;10.090;2022-11-15T02:46:06;8.10;99.90
10314;DHT22;5202;49.138;10.090;2022-11-15T02:48:59;8.10;99.90
10314;DHT22;5202;49.138;10.090;2022-11-15T02:51:48;8.00;99.90
10314;DHT22;5202;49.138;10.090;2022-11-15T02:54:35;8.00;99.90
10314;DHT22;5202;49.138;10.090;2022-11-15T02:57:31;8.00;99.90
10314;DHT22;5202;49.138;10.090;2022-11-15T03:00:24;8.00;99.90
10314;DHT22;5202;49.138;10.090;2022-11-15T03:03:27;7.90;99.90
10314;DHT22;5202;49.138;10.090;2022-11-15T03:06:26;7.90;99.90
10314;DHT22;5202;49.138;10.090;2022-11-15T03:09:24;7.90;99.90
10314;DHT22;5202;49.138;10.090;2022-11-15T03:12:23;7.80;99.90
10314;DHT22;5202;49.138;10.090;2022-11-15T03:15:19;7.70;99.90
10314;DHT22;5202;49.138;10.090;2022-11-15T03:18:13;7.60;99.90
10314;DHT22;5202;49.138;10.090;2022-11-15T03:21:07;7.50;99.90
10314;DHT22;5202;49.138;10.090;2022-11-15T03:23:55;7.50;99.90
10314;DHT22;5202;49.138;10.090;2022-11-15T03:26:44;7.40;99.90
10314;DHT22;5202;49.138;10.090;2022-11-15T03:29:33;7.40;99.90
10314;DHT22;5202;49.138;10.090;2022-11-15T03:32:26;7.20;99.90
10314;DHT22;5202;49.138;10.090;2022-11-15T03:35:19;7.20;99.90
10314;DHT22;5202;49.138;10.090;2022-11-15T03:38:13;7.10;99.90
10314;DHT22;5202;49.138;10.090;2022-11-15T03:41:06;7.10;99.90
10314;DHT22;5202;49.138;10.090;2022-11-15T03:43:58;7.10;99.90
10314;DHT22;5202;49.138;10.090;2022-11-15T03:46:57;7.00;99.90
10314;DHT22;5202;49.138;10.090;2022-11-15T03:49:57;7.00;99.90
10314;DHT22;5202;49.138;10.090;2022-11-15T03:52:49;6.90;99.90
10314;DHT22;5202;49.138;10.090;2022-11-15T03:55:36;6.90;99.90
10314;DHT22;5202;49.138;10.090;2022-11-15T03:58:22;6.80;99.90
10314;DHT22;5202;49.138;10.090;2022-11-15T04:01:09;6.80;99.90
10314;DHT22;5202;49.138;10.090;2022-11-15T04:03:56;6.70;99.90
10314;DHT22;5202;49.138;10.090;2022-11-15T04:06:43;6.60;99.90
10314;DHT22;5202;49.138;10.090;2022-11-15T04:09:31;6.50;99.90
10314;DHT22;5202;49.138;10.090;2022-11-15T04:12:19;6.40;99.90
10314;DHT22;5202;49.138;10.090;2022-11-15T04:15:17;6.40;99.90
10314;DHT22;5202;49.138;10.090;2022-11-15T04:18:05;6.40;99.90
10314;DHT22;5202;49.138;10.090;2022-11-15T04:20:52;6.40;99.90
10314;DHT22;5202;49.138;10.090;2022-11-15T04:23:56;6.50;99.90
10314;DHT22;5202;49.138;10.090;2022-11-15T04:27:02;6.50;99.90
10314;DHT22;5202;49.138;10.090;2022-11-15T04:29:48;6.50;99.90
10314;DHT22;5202;49.138;10.090;2022-11-15T04:32:35;6.50;99.90
10314;DHT22;5202;49.138;10.090;2022-11-15T04:35:22;6.50;99.90
10314;DHT22;5202;49.138;10.090;2022-11-15T04:38:10;6.50;99.90
10314;DHT22;5202;49.138;10.090;2022-11-15T04:40:57;6.40;99.90
10314;DHT22;5202;49.138;10.090;2022-11-15T04:43:45;6.40;99.90
10314;DHT22;5202;49.138;10.090;2022-11-15T04:46:32;6.40;99.90
10314;DHT22;5202;49.138;10.090;2022-11-15T04:49:19;6.30;99.90
10314;DHT22;5202;49.138;10.090;2022-11-15T04:52:05;6.20;99.90
10314;DHT22;5202;49.138;10.090;2022-11-15T04:54:52;6.20;99.90
10314;DHT22;5202;49.138;10.090;2022-11-15T04:57:39;6.20;99.90
10314;DHT22;5202;49.138;10.090;2022-11-15T05:00:28;6.10;99.90
10314;DHT22;5202;49.138;10.090;2022-11-15T05:03:15;6.10;99.90
10314;DHT22;5202;49.138;10.090;2022-11-15T05:06:22;6.10;99.90
10314;DHT22;5202;49.138;10.090;2022-11-15T05:09:09;6.10;99.90
10314;DHT22;5202;49.138;10.090;2022-11-15T05:11:58;6.10;99.90
10314;DHT22;5202;49.138;10.090;2022-11-15T05:14:44;6.10;99.90
10314;DHT22;5202;49.138;10.090;2022-11-15T05:17:32;6.00;99.90
10314;DHT22;5202;49.138;10.090;2022-11-15T05:20:19;6.00;99.90
10314;DHT22;5202;49.138;10.090;2022-11-15T05:23:06;5.90;99.90
10314;DHT22;5202;49.138;10.090;2022-11-15T05:25:52;5.90;99.90
10314;DHT22;5202;49.138;10.090;2022-11-15T05:28:39;6.00;99.90
10314;DHT22;5202;49.138;10.090;2022-11-15T05:31:26;6.10;99.90
10314;DHT22;5202;49.138;10.090;2022-11-15T05:34:14;6.20;99.90
10314;DHT22;5202;49.138;10.090;2022-11-15T05:37:03;6.20;99.90
10314;DHT22;5202;49.138;10.090;2022-11-15T05:39:50;6.20;99.90
10314;DHT22;5202;49.138;10.090;2022-11-15T05:42:37;6.10;99.90
10314;DHT22;5202;49.138;10.090;2022-11-15T05:45:24;6.10;99.90
10314;DHT22;5202;49.138;10.090;2022-11-15T05:48:12;6.00;99.90
10314;DHT22;5202;49.138;10.090;2022-11-15T05:51:01;5.90;99.90
10314;DHT22;5202;49.138;10.090;2022-11-15T05:53:50;5.80;99.90
10314;DHT22;5202;49.138;10.090;2022-11-15T05:56:38;5.80;99.90
10314;DHT22;5202;49.138;10.090;2022-11-15T05:59:27;5.80;99.90
10314;DHT22;5202;49.138;10.090;2022-11-15T06:02:14;5.70;99.90
10314;DHT22;5202;49.138;10.090;2022-11-15T06:05:01;5.70;99.90
10314;DHT22;5202;49.138;10.090;2022-11-15T06:07:50;5.70;99.90
10314;DHT22;5202;49.138;10.090;2022-11-15T06:10:36;5.60;99.90
10314;DHT22;5202;49.138;10.090;2022-11-15T06:13:23;5.60;99.90
10314;DHT22;5202;49.138;10.090;2022-11-15T06:16:10;5.70;99.90
10314;DHT22;5202;49.138;10.090;2022-11-15T06:18:56;5.70;99.90
10314;DHT22;5202;49.138;10.090;2022-11-15T06:21:43;5.70;99.90
10314;DHT22;5202;49.138;10.090;2022-11-15T06:24:31;5.90;99.90
10314;DHT22;5202;49.138;10.090;2022-11-15T06:27:18;5.80;99.90
10314;DHT22;5202;49.138;10.090;2022-11-15T06:30:06;5.80;99.90
10314;DHT22;5202;49.138;10.090;2022-11-15T06:32:59;5.80;99.90
10314;DHT22;5202;49.138;10.090;2022-11-15T06:35:47;5.80;99.90
10314;DHT22;5202;49.138;10.090;2022-11-15T06:38:34;5.80;99.90
10314;DHT22;5202;49.138;10.090;2022-11-15T06:41:26;5.80;99.90
10314;DHT22;5202;49.138;10.090;2022-11-15T06:44:12;5.80;99.90
10314;DHT22;5202;49.138;10.090;2022-11-15T06:46:59;5.80;99.90
10314;DHT22;5202;49.138;10.090;2022-11-15T06:49:46;5.80;99.90
10314;DHT22;5202;49.138;10.090;2022-11-15T06:52:32;5.80;99.90
10314;DHT22;5202;49.138;10.090;2022-11-15T06:55:19;5.70;99.90
10314;DHT22;5202;49.138;10.090;2022-11-15T06:58:07;5.50;99.90
10314;DHT22;5202;49.138;10.090;2022-11-15T07:00:58;5.50;99.90
10314;DHT22;5202;49.138;10.090;2022-11-15T07:03:46;5.40;99.90
10314;DHT22;5202;49.138;10.090;2022-11-15T07:06:33;5.40;99.90
10314;DHT22;5202;49.138;10.090;2022-11-15T07:09:20;5.40;99.90
10314;DHT22;5202;49.138;10.090;2022-11-15T07:12:06;5.40;99.90
10314;DHT22;5202;49.138;10.090;2022-11-15T07:14:55;5.50;99.90
10314;DHT22;5202;49.138;10.090;2022-11-15T07:17:42;5.50;99.90
10314;DHT22;5202;49.138;10.090;2022-11-15T07:20:29;5.50;99.90
10314;DHT22;5202;49.138;10.090;2022-11-15T07:23:15;5.40;99.90
10314;DHT22;5202;49.138;10.090;2022-11-15T07:26:03;5.40;99.90
10314;DHT22;5202;49.138;10.090;2022-11-15T07:28:50;5.60;99.90
10314;DHT22;5202;49.138;10.090;2022-11-15T07:31:38;5.60;99.90
10314;DHT22;5202;49.138;10.090;2022-11-15T07:34:25;5.80;99.90
10314;DHT22;5202;49.138;10.090;2022-11-15T07:37:12;5.90;99.90
10314;DHT22;5202;49.138;10.090;2022-11-15T07:39:59;6.10;99.90
10314;DHT22;5202;49.138;10.090;2022-11-15T07:42:49;6.30;99.90
10314;DHT22;5202;49.138;10.090;2022-11-15T07:45:43;6.40;99.90
10314;DHT22;5202;49.138;10.090;2022-11-15T07:48:32;6.50;99.90
10314;DHT22;5202;49.138;10.090;2022-11-15T07:51:29;6.60;99.90
10314;DHT22;5202;49.138;10.090;2022-11-15T07:54:16;6.60;99.90
10314;DHT22;5202;49.138;10.090;2022-11-15T07:57:03;6.70;99.90
10314;DHT22;5202;49.138;10.090;2022-11-15T07:59:54;6.90;99.90
10314;DHT22;5202;49.138;10.090;2022-11-15T08:02:42;7.00;99.90
10314;DHT22;5202;49.138;10.090;2022-11-15T08:05:31;7.10;99.90
10314;DHT22;5202;49.138;10.090;2022-11-15T08:08:18;7.20;99.90
10314;DHT22;5202;49.138;10.090;2022-11-15T08:11:05;7.40;99.90
10314;DHT22;5202;49.138;10.090;2022-11-15T08:13:52;7.50;99.90
10314;DHT22;5202;49.138;10.090;2022-11-15T08:16:39;7.60;99.90
10314;DHT22;5202;49.138;10.090;2022-11-15T08:19:25;7.70;99.90
10314;DHT22;5202;49.138;10.090;2022-11-15T08:22:14;7.80;99.90
10314;DHT22;5202;49.138;10.090;2022-11-15T08:25:00;8.00;99.90
10314;DHT22;5202;49.138;10.090;2022-11-15T08:27:56;8.10;99.90
10314;DHT22;5202;49.138;10.090;2022-11-15T08:30:44;8.20;99.90
10314;DHT22;5202;49.138;10.090;2022-11-15T08:33:31;8.40;99.90
10314;DHT22;5202;49.138;10.090;2022-11-15T08:36:19;8.60;99.90
10314;DHT22;5202;49.138;10.090;2022-11-15T08:39:11;8.70;99.90
10314;DHT22;5202;49.138;10.090;2022-11-15T08:41:58;8.90;99.90
10314;DHT22;5202;49.138;10.090;2022-11-15T08:44:45;9.00;99.90
10314;DHT22;5202;49.138;10.090;2022-11-15T08:47:32;9.10;99.90
10314;DHT22;5202;49.138;10.090;2022-11-15T08:50:18;9.30;99.90
10314;DHT22;5202;49.138;10.090;2022-11-15T08:53:06;9.50;99.90
10314;DHT22;5202;49.138;10.090;2022-11-15T08:55:55;9.60;99.90
10314;DHT22;5202;49.138;10.090;2022-11-15T08:58:41;9.80;99.90
10314;DHT22;5202;49.138;10.090;2022-11-15T09:01:28;10.00;99.90
10314;DHT22;5202;49.138;10.090;2022-11-15T09:04:42;10.10;99.90
10314;DHT22;5202;49.138;10.090;2022-11-15T09:07:31;10.30;99.90
10314;DHT22;5202;49.138;10.090;2022-11-15T09:10:18;10.50;99.90
10314;DHT22;5202;49.138;10.090;2022-11-15T09:13:06;10.60;99.90
10314;DHT22;5202;49.138;10.090;2022-11-15T09:15:57;10.80;99.90
10314;DHT22;5202;49.138;10.090;2022-11-15T09:18:44;10.90;99.90
10314;DHT22;5202;49.138;10.090;2022-11-15T09:21:31;11.10;99.90
10314;DHT22;5202;49.138;10.090;2022-11-15T09:24:18;11.20;99.90
10314;DHT22;5202;49.138;10.090;2022-11-15T09:27:05;11.40;99.90
10314;DHT22;5202;49.138;10.090;2022-11-15T09:29:53;11.60;99.90
10314;DHT22;5202;49.138;10.090;2022-11-15T09:32:39;11.80;99.90
10314;DHT22;5202;49.138;10.090;2022-11-15T09:35:26;12.00;99.90
10314;DHT22;5202;49.138;10.090;2022-11-15T09:38:13;12.20;99.90
10314;DHT22;5202;49.138;10.090;2022-11-15T09:41:18;12.40;99.90
10314;DHT22;5202;49.138;10.090;2022-11-15T09:44:41;12.50;99.60
10314;DHT22;5202;49.138;10.090;2022-11-15T09:47:46;12.60;98.80
10314;DHT22;5202;49.138;10.090;2022-11-15T09:50:41;12.70;98.80
10314;DHT22;5202;49.138;10.090;2022-11-15T09:53:17;12.80;99.20
10314;DHT22;5202;49.138;10.090;2022-11-15T09:56:14;13.00;99.50
10314;DHT22;5202;49.138;10.090;2022-11-15T09:58:50;13.10;99.60
10314;DHT22;5202;49.138;10.090;2022-11-15T10:01:34;13.30;98.90
10314;DHT22;5202;49.138;10.090;2022-11-15T10:04:08;13.40;98.00
10314;DHT22;5202;49.138;10.090;2022-11-15T10:06:47;13.40;96.90
10314;DHT22;5202;49.138;10.090;2022-11-15T10:09:24;13.50;96.60
10314;DHT22;5202;49.138;10.090;2022-11-15T10:11:56;13.60;96.70
10314;DHT22;5202;49.138;10.090;2022-11-15T10:14:27;13.60;96.70
10314;DHT22;5202;49.138;10.090;2022-11-15T10:17:17;13.60;96.80
10314;DHT22;5202;49.138;10.090;2022-11-15T10:20:10;13.50;96.40
10314;DHT22;5202;49.138;10.090;2022-11-15T10:22:45;13.50;96.70
10314;DHT22;5202;49.138;10.090;2022-11-15T10:25:19;13.60;97.20
10314;DHT22;5202;49.138;10.090;2022-11-15T10:27:53;13.60;96.10
10314;DHT22;5202;49.138;10.090;2022-11-15T10:30:31;13.60;96.20
10314;DHT22;5202;49.138;10.090;2022-11-15T10:33:16;13.60;96.30
10314;DHT22;5202;49.138;10.090;2022-11-15T10:36:16;13.60;95.60
10314;DHT22;5202;49.138;10.090;2022-11-15T10:38:57;13.50;95.40
10314;DHT22;5202;49.138;10.090;2022-11-15T10:41:35;13.50;95.60
10314;DHT22;5202;49.138;10.090;2022-11-15T10:44:12;13.50;95.60
10314;DHT22;5202;49.138;10.090;2022-11-15T10:46:48;13.50;95.70
10314;DHT22;5202;49.138;10.090;2022-11-15T10:49:19;13.40;95.60
10314;DHT22;5202;49.138;10.090;2022-11-15T10:51:52;13.40;96.10
10314;DHT22;5202;49.138;10.090;2022-11-15T10:54:34;13.40;96.20
10314;DHT22;5202;49.138;10.090;2022-11-15T10:57:07;13.50;96.60
10314;DHT22;5202;49.138;10.090;2022-11-15T10:59:46;13.60;96.50
10314;DHT22;5202;49.138;10.090;2022-11-15T11:02:31;13.60;96.40
10314;DHT22;5202;49.138;10.090;2022-11-15T11:05:26;13.70;95.90
10314;DHT22;5202;49.138;10.090;2022-11-15T11:08:03;13.70;95.60
10314;DHT22;5202;49.138;10.090;2022-11-15T11:10:33;13.90;95.90
10314;DHT22;5202;49.138;10.090;2022-11-15T11:13:23;14.00;95.70
10314;DHT22;5202;49.138;10.090;2022-11-15T11:15:55;14.00;95.10
10314;DHT22;5202;49.138;10.090;2022-11-15T11:18:32;14.10;95.40
10314;DHT22;5202;49.138;10.090;2022-11-15T11:21:09;14.10;94.90
10314;DHT22;5202;49.138;10.090;2022-11-15T11:23:47;14.20;95.20
10314;DHT22;5202;49.138;10.090;2022-11-15T11:26:35;14.30;95.20
10314;DHT22;5202;49.138;10.090;2022-11-15T11:29:24;14.30;94.60
10314;DHT22;5202;49.138;10.090;2022-11-15T11:32:03;14.30;93.50
10314;DHT22;5202;49.138;10.090;2022-11-15T11:34:48;14.30;92.70
10314;DHT22;5202;49.138;10.090;2022-11-15T11:37:27;14.40;91.90
10314;DHT22;5202;49.138;10.090;2022-11-15T11:40:12;14.40;92.60
10314;DHT22;5202;49.138;10.090;2022-11-15T11:42:52;14.40;92.10
10314;DHT22;5202;49.138;10.090;2022-11-15T11:45:43;14.50;91.10
10314;DHT22;5202;49.138;10.090;2022-11-15T11:48:38;14.40;91.40
10314;DHT22;5202;49.138;10.090;2022-11-15T11:51:18;14.50;92.80
10314;DHT22;5202;49.138;10.090;2022-11-15T11:53:54;14.40;92.00
10314;DHT22;5202;49.138;10.090;2022-11-15T11:56:28;14.40;91.80
10314;DHT22;5202;49.138;10.090;2022-11-15T11:59:02;14.40;91.30
10314;DHT22;5202;49.138;10.090;2022-11-15T12:01:40;14.30;90.60
10314;DHT22;5202;49.138;10.090;2022-11-15T12:04:15;14.30;90.70
10314;DHT22;5202;49.138;10.090;2022-11-15T12:06:50;14.40;91.40
10314;DHT22;5202;49.138;10.090;2022-11-15T12:09:23;14.50;92.10
10314;DHT22;5202;49.138;10.090;2022-11-15T12:12:04;14.60;91.40
10314;DHT22;5202;49.138;10.090;2022-11-15T12:14:41;14.80;91.40
10314;DHT22;5202;49.138;10.090;2022-11-15T12:17:13;15.00;91.00
10314;DHT22;5202;49.138;10.090;2022-11-15T12:19:43;15.20;89.40
10314;DHT22;5202;49.138;10.090;2022-11-15T12:22:16;15.20;89.80
10314;DHT22;5202;49.138;10.090;2022-11-15T12:24:52;15.40;90.00
10314;DHT22;5202;49.138;10.090;2022-11-15T12:27:31;15.50;89.90
10314;DHT22;5202;49.138;10.090;2022-11-15T12:30:09;15.50;88.10
10314;DHT22;5202;49.138;10.090;2022-11-15T12:32:49;15.60;89.20
10314;DHT22;5202;49.138;10.090;2022-11-15T12:35:25;15.50;90.10
10314;DHT22;5202;49.138;10.090;2022-11-15T12:37:55;15.40;89.40
10314;DHT22;5202;49.138;10.090;2022-11-15T12:40:26;15.40;88.90
10314;DHT22;5202;49.138;10.090;2022-11-15T12:46:04;15.40;91.00
10314;DHT22;5202;49.138;10.090;2022-11-15T12:48:50;15.40;91.20
10314;DHT22;5202;49.138;10.090;2022-11-15T12:51:22;15.60;91.70
10314;DHT22;5202;49.138;10.090;2022-11-15T13:00:39;16.60;89.80
10314;DHT22;5202;49.138;10.090;2022-11-15T13:03:22;16.70;87.00
10314;DHT22;5202;49.138;10.090;2022-11-15T13:06:08;16.70;87.40
10314;DHT22;5202;49.138;10.090;2022-11-15T13:09:00;16.60;86.90
10314;DHT22;5202;49.138;10.090;2022-11-15T13:11:48;16.40;87.00
10314;DHT22;5202;49.138;10.090;2022-11-15T13:14:50;16.10;87.20
10314;DHT22;5202;49.138;10.090;2022-11-15T13:17:26;15.90;88.70
10314;DHT22;5202;49.138;10.090;2022-11-15T13:20:09;15.90;89.00
10314;DHT22;5202;49.138;10.090;2022-11-15T13:22:52;15.60;89.50
10314;DHT22;5202;49.138;10.090;2022-11-15T13:28:43;15.30;91.00
10314;DHT22;5202;49.138;10.090;2022-11-15T13:31:25;15.10;92.10
10314;DHT22;5202;49.138;10.090;2022-11-15T13:34:02;15.00;92.70
10314;DHT22;5202;49.138;10.090;2022-11-15T13:36:52;14.80;93.00
10314;DHT22;5202;49.138;10.090;2022-11-15T13:39:28;14.70;92.80
10314;DHT22;5202;49.138;10.090;2022-11-15T13:41:58;14.70;93.00
10314;DHT22;5202;49.138;10.090;2022-11-15T13:44:29;14.60;93.20
10314;DHT22;5202;49.138;10.090;2022-11-15T13:47:03;14.50;93.30
10314;DHT22;5202;49.138;10.090;2022-11-15T13:49:34;14.50;93.70
10314;DHT22;5202;49.138;10.090;2022-11-15T13:52:06;14.40;94.00
10314;DHT22;5202;49.138;10.090;2022-11-15T13:54:38;14.40;94.10
10314;DHT22;5202;49.138;10.090;2022-11-15T13:57:14;14.30;94.20
10314;DHT22;5202;49.138;10.090;2022-11-15T13:59:48;14.20;94.10
10314;DHT22;5202;49.138;10.090;2022-11-15T14:02:19;14.10;93.80
10314;DHT22;5202;49.138;10.090;2022-11-15T14:04:53;14.10;93.90
10314;DHT22;5202;49.138;10.090;2022-11-15T14:07:25;14.00;94.30
10314;DHT22;5202;49.138;10.090;2022-11-15T14:09:55;13.90;94.70
10314;DHT22;5202;49.138;10.090;2022-11-15T14:12:30;13.90;95.00
10314;DHT22;5202;49.138;10.090;2022-11-15T14:15:01;13.90;94.90
10314;DHT22;5202;49.138;10.090;2022-11-15T14:17:46;13.80;95.20
10314;DHT22;5202;49.138;10.090;2022-11-15T14:20:27;13.80;95.60
10314;DHT22;5202;49.138;10.090;2022-11-15T14:22:58;13.80;95.60
10314;DHT22;5202;49.138;10.090;2022-11-15T14:25:28;13.80;96.00
10314;DHT22;5202;49.138;10.090;2022-11-15T14:28:15;13.70;95.80
10314;DHT22;5202;49.138;10.090;2022-11-15T14:30:58;13.70;95.60
10314;DHT22;5202;49.138;10.090;2022-11-15T14:33:29;13.70;95.40
10314;DHT22;5202;49.138;10.090;2022-11-15T14:36:03;13.60;95.50
10314;DHT22;5202;49.138;10.090;2022-11-15T14:38:33;13.60;95.00
10314;DHT22;5202;49.138;10.090;2022-11-15T14:41:02;13.50;95.20
10314;DHT22;5202;49.138;10.090;2022-11-15T14:43:30;13.40;95.40
10314;DHT22;5202;49.138;10.090;2022-11-15T14:45:59;13.40;95.60
10314;DHT22;5202;49.138;10.090;2022-11-15T14:48:27;13.30;95.70
10314;DHT22;5202;49.138;10.090;2022-11-15T14:50:56;13.30;95.80
10314;DHT22;5202;49.138;10.090;2022-11-15T14:53:26;13.20;95.70
10314;DHT22;5202;49.138;10.090;2022-11-15T14:55:54;13.20;96.00
10314;DHT22;5202;49.138;10.090;2022-11-15T14:58:22;13.10;96.00
10314;DHT22;5202;49.138;10.090;2022-11-15T15:00:51;13.10;96.20
10314;DHT22;5202;49.138;10.090;2022-11-15T15:03:19;13.00;96.30
10314;DHT22;5202;49.138;10.090;2022-11-15T15:05:47;13.00;96.60
10314;DHT22;5202;49.138;10.090;2022-11-15T15:08:16;12.90;96.90
10314;DHT22;5202;49.138;10.090;2022-11-15T15:10:45;12.90;97.10
10314;DHT22;5202;49.138;10.090;2022-11-15T15:13:17;12.80;97.20
10314;DHT22;5202;49.138;10.090;2022-11-15T15:15:46;12.70;97.30
10314;DHT22;5202;49.138;10.090;2022-11-15T15:18:15;12.70;97.60
10314;DHT22;5202;49.138;10.090;2022-11-15T15:20:45;12.70;97.70
10314;DHT22;5202;49.138;10.090;2022-11-15T15:23:18;12.60;97.70
10314;DHT22;5202;49.138;10.090;2022-11-15T15:25:49;12.50;97.70
10314;DHT22;5202;49.138;10.090;2022-11-15T15:28:17;12.50;97.70
10314;DHT22;5202;49.138;10.090;2022-11-15T15:30:45;12.50;97.90
10314;DHT22;5202;49.138;10.090;2022-11-15T15:33:13;12.40;98.00
10314;DHT22;5202;49.138;10.090;2022-11-15T15:35:42;12.40;98.40
10314;DHT22;5202;49.138;10.090;2022-11-15T15:38:11;12.40;98.50
10314;DHT22;5202;49.138;10.090;2022-11-15T15:40:40;12.30;98.60
10314;DHT22;5202;49.138;10.090;2022-11-15T15:43:09;12.20;98.70
10314;DHT22;5202;49.138;10.090;2022-11-15T15:45:38;12.10;98.60
10314;DHT22;5202;49.138;10.090;2022-11-15T15:48:10;12.10;98.50
10314;DHT22;5202;49.138;10.090;2022-11-15T15:50:39;12.10;98.60
10314;DHT22;5202;49.138;10.090;2022-11-15T15:53:10;12.00;98.50
10314;DHT22;5202;49.138;10.090;2022-11-15T15:55:40;12.00;98.60
10314;DHT22;5202;49.138;10.090;2022-11-15T15:58:10;11.90;98.60
10314;DHT22;5202;49.138;10.090;2022-11-15T16:00:38;11.90;98.80
10314;DHT22;5202;49.138;10.090;2022-11-15T16:03:07;11.80;99.20
10314;DHT22;5202;49.138;10.090;2022-11-15T16:05:35;11.80;98.90
10314;DHT22;5202;49.138;10.090;2022-11-15T16:08:04;11.80;99.00
10314;DHT22;5202;49.138;10.090;2022-11-15T16:10:33;11.80;99.10
10314;DHT22;5202;49.138;10.090;2022-11-15T16:13:03;11.70;98.90
10314;DHT22;5202;49.138;10.090;2022-11-15T16:15:33;11.70;99.10
10314;DHT22;5202;49.138;10.090;2022-11-15T16:18:01;11.70;99.20
10314;DHT22;5202;49.138;10.090;2022-11-15T16:20:34;11.60;99.30
10314;DHT22;5202;49.138;10.090;2022-11-15T16:23:06;11.60;99.50
10314;DHT22;5202;49.138;10.090;2022-11-15T16:25:41;11.60;99.50
10314;DHT22;5202;49.138;10.090;2022-11-15T16:28:17;11.50;99.70
10314;DHT22;5202;49.138;10.090;2022-11-15T16:30:49;11.40;99.90
10314;DHT22;5202;49.138;10.090;2022-11-15T16:33:26;11.30;99.90
10314;DHT22;5202;49.138;10.090;2022-11-15T16:35:54;11.30;99.90
10314;DHT22;5202;49.138;10.090;2022-11-15T16:38:23;11.20;99.90
10314;DHT22;5202;49.138;10.090;2022-11-15T16:40:51;11.20;99.90
10314;DHT22;5202;49.138;10.090;2022-11-15T16:43:19;11.10;99.90
10314;DHT22;5202;49.138;10.090;2022-11-15T16:45:50;11.10;99.90
10314;DHT22;5202;49.138;10.090;2022-11-15T16:48:23;11.10;99.90
10314;DHT22;5202;49.138;10.090;2022-11-15T16:50:54;11.10;99.90
10314;DHT22;5202;49.138;10.090;2022-11-15T16:53:23;11.10;99.90
10314;DHT22;5202;49.138;10.090;2022-11-15T16:55:53;11.10;99.90
10314;DHT22;5202;49.138;10.090;2022-11-15T16:58:22;11.10;99.90
10314;DHT22;5202;49.138;10.090;2022-11-15T17:00:54;11.10;99.90
10314;DHT22;5202;49.138;10.090;2022-11-15T17:03:24;11.00;99.90
10314;DHT22;5202;49.138;10.090;2022-11-15T17:05:52;11.10;99.90
10314;DHT22;5202;49.138;10.090;2022-11-15T17:08:28;11.00;99.90
10314;DHT22;5202;49.138;10.090;2022-11-15T17:10:57;11.00;99.90
10314;DHT22;5202;49.138;10.090;2022-11-15T17:13:25;11.00;99.90
10314;DHT22;5202;49.138;10.090;2022-11-15T17:16:04;11.00;99.90
10314;DHT22;5202;49.138;10.090;2022-11-15T17:18:33;11.00;99.90
10314;DHT22;5202;49.138;10.090;2022-11-15T17:21:06;11.00;99.90
10314;DHT22;5202;49.138;10.090;2022-11-15T17:23:37;11.00;99.90
10314;DHT22;5202;49.138;10.090;2022-11-15T17:26:06;10.90;99.90
10314;DHT22;5202;49.138;10.090;2022-11-15T17:28:55;10.90;99.90
10314;DHT22;5202;49.138;10.090;2022-11-15T17:31:26;10.90;99.90
10314;DHT22;5202;49.138;10.090;2022-11-15T17:33:56;10.80;99.90
10314;DHT22;5202;49.138;10.090;2022-11-15T17:36:24;10.80;99.90